sensor_id;sensor_type;location;lat;lon;timestamp;P1;durP1;ratioP1;P2;durP2;ratioP2
48363;SDS011;34170;54.364;18.582;2022-09-13T00:01:32;13.07;;;8.60;;
48363;SDS011;34170;54.364;18.582;2022-09-13T00:04:00;12.07;;;8.70;;
48363;SDS011;34170;54.364;18.582;2022-09-13T00:06:27;13.63;;;8.52;;
48363;SDS011;34170;54.364;18.582;2022-09-13T00:08:55;12.25;;;8.27;;
48363;SDS011;34170;54.364;18.582;2022-09-13T00:11:26;11.30;;;8.20;;
48363;SDS011;34170;54.364;18.582;2022-09-13T00:13:55;14.30;;;8.65;;
48363;SDS011;34170;54.364;18.582;2022-09-13T00:16:25;13.13;;;8.30;;
48363;SDS011;34170;54.364;18.582;2022-09-13T00:18:54;14.15;;;8.15;;
48363;SDS011;34170;54.364;18.582;2022-09-13T00:21:22;11.48;;;7.50;;
48363;SDS011;34170;54.364;18.582;2022-09-13T00:23:51;10.02;;;7.05;;
48363;SDS011;34170;54.364;18.582;2022-09-13T00:26:24;12.35;;;7.63;;
48363;SDS011;34170;54.364;18.582;2022-09-13T00:28:55;10.82;;;7.03;;
48363;SDS011;34170;54.364;18.582;2022-09-13T00:31:24;12.00;;;7.63;;
48363;SDS011;34170;54.364;18.582;2022-09-13T00:33:53;10.35;;;7.30;;
48363;SDS011;34170;54.364;18.582;2022-09-13T00:36:21;12.02;;;7.63;;
48363;SDS011;34170;54.364;18.582;2022-09-13T00:38:49;10.57;;;7.40;;
48363;SDS011;34170;54.364;18.582;2022-09-13T00:41:16;9.98;;;6.57;;
48363;SDS011;34170;54.364;18.582;2022-09-13T00:43:49;9.52;;;6.13;;
48363;SDS011;34170;54.364;18.582;2022-09-13T00:51:47;7.35;;;5.15;;
48363;SDS011;34170;54.364;18.582;2022-09-13T00:54:17;10.25;;;6.45;;
48363;SDS011;34170;54.364;18.582;2022-09-13T00:56:52;9.00;;;6.00;;
48363;SDS011;34170;54.364;18.582;2022-09-13T00:59:32;8.13;;;5.95;;
48363;SDS011;34170;54.364;18.582;2022-09-13T01:04:32;9.15;;;5.78;;
48363;SDS011;34170;54.364;18.582;2022-09-13T01:07:03;8.73;;;5.10;;
48363;SDS011;34170;54.364;18.582;2022-09-13T01:09:35;8.52;;;5.50;;
48363;SDS011;34170;54.364;18.582;2022-09-13T01:14:34;10.88;;;7.13;;
48363;SDS011;34170;54.364;18.582;2022-09-13T01:17:03;9.90;;;6.68;;
48363;SDS011;34170;54.364;18.582;2022-09-13T01:19:30;8.82;;;5.32;;
48363;SDS011;34170;54.364;18.582;2022-09-13T01:30:28;12.20;;;5.63;;
48363;SDS011;34170;54.364;18.582;2022-09-13T01:39:03;7.25;;;4.75;;
48363;SDS011;34170;54.364;18.582;2022-09-13T01:47:23;5.35;;;3.33;;
48363;SDS011;34170;54.364;18.582;2022-09-13T01:55:20;5.25;;;3.25;;
48363;SDS011;34170;54.364;18.582;2022-09-13T01:57:56;4.82;;;3.40;;
48363;SDS011;34170;54.364;18.582;2022-09-13T02:00:27;5.50;;;3.03;;
48363;SDS011;34170;54.364;18.582;2022-09-13T02:03:02;4.87;;;3.43;;
48363;SDS011;34170;54.364;18.582;2022-09-13T02:05:44;6.53;;;2.92;;
48363;SDS011;34170;54.364;18.582;2022-09-13T02:08:19;4.90;;;3.40;;
48363;SDS011;34170;54.364;18.582;2022-09-13T02:13:39;5.57;;;3.50;;
48363;SDS011;34170;54.364;18.582;2022-09-13T02:16:14;5.13;;;3.90;;
48363;SDS011;34170;54.364;18.582;2022-09-13T02:18:51;5.60;;;3.28;;
48363;SDS011;34170;54.364;18.582;2022-09-13T02:21:30;4.30;;;2.90;;
48363;SDS011;34170;54.364;18.582;2022-09-13T02:24:09;5.85;;;3.75;;
48363;SDS011;34170;54.364;18.582;2022-09-13T02:26:44;4.75;;;3.08;;
48363;SDS011;34170;54.364;18.582;2022-09-13T02:29:13;5.55;;;3.40;;
48363;SDS011;34170;54.364;18.582;2022-09-13T02:31:48;6.38;;;3.40;;
48363;SDS011;34170;54.364;18.582;2022-09-13T02:34:22;5.25;;;3.10;;
48363;SDS011;34170;54.364;18.582;2022-09-13T02:36:57;4.43;;;3.38;;
48363;SDS011;34170;54.364;18.582;2022-09-13T02:39:28;4.68;;;3.03;;
48363;SDS011;34170;54.364;18.582;2022-09-13T02:42:09;4.50;;;2.95;;
48363;SDS011;34170;54.364;18.582;2022-09-13T02:44:48;4.95;;;3.25;;
48363;SDS011;34170;54.364;18.582;2022-09-13T02:58:45;5.93;;;3.20;;
48363;SDS011;34170;54.364;18.582;2022-09-13T03:01:28;7.78;;;3.00;;
48363;SDS011;34170;54.364;18.582;2022-09-13T03:03:56;5.18;;;3.50;;
48363;SDS011;34170;54.364;18.582;2022-09-13T03:06:24;4.55;;;3.35;;
48363;SDS011;34170;54.364;18.582;2022-09-13T03:08:53;5.85;;;3.53;;
48363;SDS011;34170;54.364;18.582;2022-09-13T03:14:19;10.15;;;6.60;;
48363;SDS011;34170;54.364;18.582;2022-09-13T03:17:13;7.72;;;4.00;;
48363;SDS011;34170;54.364;18.582;2022-09-13T03:20:05;6.00;;;3.30;;
48363;SDS011;34170;54.364;18.582;2022-09-13T03:31:20;5.05;;;2.80;;
48363;SDS011;34170;54.364;18.582;2022-09-13T03:33:57;7.53;;;3.05;;
48363;SDS011;34170;54.364;18.582;2022-09-13T03:36:34;4.57;;;2.83;;
48363;SDS011;34170;54.364;18.582;2022-09-13T03:41:54;9.27;;;3.40;;
48363;SDS011;34170;54.364;18.582;2022-09-13T03:44:26;7.88;;;3.20;;
48363;SDS011;34170;54.364;18.582;2022-09-13T03:46:56;5.78;;;3.22;;
48363;SDS011;34170;54.364;18.582;2022-09-13T03:49:27;4.13;;;3.13;;
48363;SDS011;34170;54.364;18.582;2022-09-13T03:51:55;6.22;;;3.38;;
48363;SDS011;34170;54.364;18.582;2022-09-13T03:54:35;4.95;;;3.40;;
48363;SDS011;34170;54.364;18.582;2022-09-13T03:59:44;5.95;;;3.40;;
48363;SDS011;34170;54.364;18.582;2022-09-13T04:02:13;4.45;;;2.75;;
48363;SDS011;34170;54.364;18.582;2022-09-13T04:04:43;4.60;;;2.88;;
48363;SDS011;34170;54.364;18.582;2022-09-13T04:07:12;6.57;;;3.72;;
48363;SDS011;34170;54.364;18.582;2022-09-13T04:09:41;5.20;;;3.35;;
48363;SDS011;34170;54.364;18.582;2022-09-13T04:12:09;6.18;;;3.45;;
48363;SDS011;34170;54.364;18.582;2022-09-13T04:14:36;4.95;;;3.63;;
48363;SDS011;34170;54.364;18.582;2022-09-13T04:17:04;5.80;;;3.40;;
48363;SDS011;34170;54.364;18.582;2022-09-13T04:19:31;4.55;;;3.30;;
48363;SDS011;34170;54.364;18.582;2022-09-13T04:21:59;6.93;;;3.53;;
48363;SDS011;34170;54.364;18.582;2022-09-13T04:24:26;4.43;;;3.30;;
48363;SDS011;34170;54.364;18.582;2022-09-13T04:26:55;7.47;;;3.80;;
48363;SDS011;34170;54.364;18.582;2022-09-13T04:29:24;4.30;;;3.15;;
48363;SDS011;34170;54.364;18.582;2022-09-13T04:31:52;5.25;;;3.53;;
48363;SDS011;34170;54.364;18.582;2022-09-13T04:34:21;7.22;;;3.25;;
48363;SDS011;34170;54.364;18.582;2022-09-13T04:36:49;6.82;;;2.97;;
48363;SDS011;34170;54.364;18.582;2022-09-13T04:39:18;7.25;;;3.25;;
48363;SDS011;34170;54.364;18.582;2022-09-13T04:41:47;5.30;;;3.40;;
48363;SDS011;34170;54.364;18.582;2022-09-13T04:44:15;6.22;;;2.90;;
48363;SDS011;34170;54.364;18.582;2022-09-13T04:46:45;4.75;;;2.58;;
48363;SDS011;34170;54.364;18.582;2022-09-13T04:49:14;5.38;;;3.03;;
48363;SDS011;34170;54.364;18.582;2022-09-13T04:51:43;5.68;;;3.28;;
48363;SDS011;34170;54.364;18.582;2022-09-13T04:54:10;3.67;;;2.20;;
48363;SDS011;34170;54.364;18.582;2022-09-13T04:56:42;4.35;;;2.67;;
48363;SDS011;34170;54.364;18.582;2022-09-13T04:59:10;6.15;;;2.28;;
48363;SDS011;34170;54.364;18.582;2022-09-13T05:01:38;4.70;;;2.67;;
48363;SDS011;34170;54.364;18.582;2022-09-13T05:04:06;3.92;;;2.42;;
48363;SDS011;34170;54.364;18.582;2022-09-13T05:06:35;2.53;;;2.05;;
48363;SDS011;34170;54.364;18.582;2022-09-13T05:09:02;4.55;;;2.65;;
48363;SDS011;34170;54.364;18.582;2022-09-13T05:11:30;4.05;;;2.28;;
48363;SDS011;34170;54.364;18.582;2022-09-13T05:13:58;3.45;;;2.00;;
48363;SDS011;34170;54.364;18.582;2022-09-13T05:16:27;5.15;;;2.38;;
48363;SDS011;34170;54.364;18.582;2022-09-13T05:18:56;3.95;;;2.20;;
48363;SDS011;34170;54.364;18.582;2022-09-13T05:21:24;5.82;;;2.13;;
48363;SDS011;34170;54.364;18.582;2022-09-13T05:23:53;4.95;;;2.78;;
48363;SDS011;34170;54.364;18.582;2022-09-13T05:26:23;4.30;;;2.08;;
48363;SDS011;34170;54.364;18.582;2022-09-13T05:28:51;7.13;;;2.63;;
48363;SDS011;34170;54.364;18.582;2022-09-13T05:31:23;5.78;;;2.70;;
48363;SDS011;34170;54.364;18.582;2022-09-13T05:33:53;4.68;;;2.72;;
48363;SDS011;34170;54.364;18.582;2022-09-13T05:36:22;6.57;;;2.53;;
48363;SDS011;34170;54.364;18.582;2022-09-13T05:38:50;3.78;;;1.80;;
48363;SDS011;34170;54.364;18.582;2022-09-13T05:41:39;3.10;;;2.10;;
48363;SDS011;34170;54.364;18.582;2022-09-13T05:44:07;2.67;;;1.73;;
48363;SDS011;34170;54.364;18.582;2022-09-13T05:46:40;3.97;;;1.90;;
48363;SDS011;34170;54.364;18.582;2022-09-13T05:49:10;7.50;;;1.85;;
48363;SDS011;34170;54.364;18.582;2022-09-13T05:51:38;4.95;;;1.75;;
48363;SDS011;34170;54.364;18.582;2022-09-13T05:54:05;4.40;;;2.38;;
48363;SDS011;34170;54.364;18.582;2022-09-13T05:56:33;2.97;;;1.33;;
48363;SDS011;34170;54.364;18.582;2022-09-13T05:59:00;5.35;;;1.48;;
48363;SDS011;34170;54.364;18.582;2022-09-13T06:01:27;5.07;;;1.50;;
48363;SDS011;34170;54.364;18.582;2022-09-13T06:03:56;3.80;;;1.65;;
48363;SDS011;34170;54.364;18.582;2022-09-13T06:06:25;3.70;;;1.20;;
48363;SDS011;34170;54.364;18.582;2022-09-13T06:08:55;2.50;;;1.27;;
48363;SDS011;34170;54.364;18.582;2022-09-13T06:11:24;4.60;;;1.70;;
48363;SDS011;34170;54.364;18.582;2022-09-13T06:13:52;4.68;;;1.33;;
48363;SDS011;34170;54.364;18.582;2022-09-13T06:16:21;7.28;;;1.52;;
48363;SDS011;34170;54.364;18.582;2022-09-13T06:18:48;3.80;;;1.15;;
48363;SDS011;34170;54.364;18.582;2022-09-13T06:21:17;3.30;;;1.27;;
48363;SDS011;34170;54.364;18.582;2022-09-13T06:23:49;4.22;;;1.45;;
48363;SDS011;34170;54.364;18.582;2022-09-13T06:26:19;4.53;;;1.52;;
48363;SDS011;34170;54.364;18.582;2022-09-13T06:28:48;3.22;;;0.90;;
48363;SDS011;34170;54.364;18.582;2022-09-13T06:31:18;3.92;;;1.48;;
48363;SDS011;34170;54.364;18.582;2022-09-13T06:33:46;4.55;;;1.65;;
48363;SDS011;34170;54.364;18.582;2022-09-13T06:36:15;4.35;;;1.20;;
48363;SDS011;34170;54.364;18.582;2022-09-13T06:38:45;2.55;;;1.33;;
48363;SDS011;34170;54.364;18.582;2022-09-13T06:41:15;4.20;;;1.13;;
48363;SDS011;34170;54.364;18.582;2022-09-13T06:43:54;3.97;;;1.45;;
48363;SDS011;34170;54.364;18.582;2022-09-13T06:46:27;3.42;;;1.52;;
48363;SDS011;34170;54.364;18.582;2022-09-13T06:49:01;7.20;;;1.25;;
48363;SDS011;34170;54.364;18.582;2022-09-13T06:51:31;2.88;;;1.02;;
48363;SDS011;34170;54.364;18.582;2022-09-13T06:54:00;6.22;;;1.67;;
48363;SDS011;34170;54.364;18.582;2022-09-13T06:56:30;6.05;;;1.60;;
48363;SDS011;34170;54.364;18.582;2022-09-13T06:59:00;3.30;;;1.58;;
48363;SDS011;34170;54.364;18.582;2022-09-13T07:01:38;4.18;;;1.75;;
48363;SDS011;34170;54.364;18.582;2022-09-13T07:04:08;3.47;;;1.58;;
48363;SDS011;34170;54.364;18.582;2022-09-13T07:06:38;3.20;;;1.35;;
48363;SDS011;34170;54.364;18.582;2022-09-13T07:09:11;4.53;;;1.77;;
48363;SDS011;34170;54.364;18.582;2022-09-13T07:11:41;5.32;;;1.48;;
48363;SDS011;34170;54.364;18.582;2022-09-13T07:14:16;5.80;;;1.58;;
48363;SDS011;34170;54.364;18.582;2022-09-13T07:16:45;2.83;;;1.70;;
48363;SDS011;34170;54.364;18.582;2022-09-13T07:19:14;8.40;;;2.67;;
48363;SDS011;34170;54.364;18.582;2022-09-13T07:21:43;6.75;;;2.97;;
48363;SDS011;34170;54.364;18.582;2022-09-13T07:24:11;5.10;;;2.83;;
48363;SDS011;34170;54.364;18.582;2022-09-13T07:26:38;6.38;;;2.10;;
48363;SDS011;34170;54.364;18.582;2022-09-13T07:29:06;6.22;;;2.40;;
48363;SDS011;34170;54.364;18.582;2022-09-13T07:31:40;3.67;;;2.27;;
48363;SDS011;34170;54.364;18.582;2022-09-13T07:34:21;6.72;;;2.83;;
48363;SDS011;34170;54.364;18.582;2022-09-13T07:36:50;7.50;;;2.30;;
48363;SDS011;34170;54.364;18.582;2022-09-13T07:39:18;7.72;;;2.85;;
48363;SDS011;34170;54.364;18.582;2022-09-13T07:41:49;2.10;;;1.33;;
48363;SDS011;34170;54.364;18.582;2022-09-13T07:44:18;4.95;;;1.92;;
48363;SDS011;34170;54.364;18.582;2022-09-13T07:46:45;6.47;;;2.67;;
48363;SDS011;34170;54.364;18.582;2022-09-13T07:49:15;5.63;;;1.98;;
48363;SDS011;34170;54.364;18.582;2022-09-13T07:51:44;4.18;;;2.13;;
48363;SDS011;34170;54.364;18.582;2022-09-13T07:54:12;7.57;;;2.25;;
48363;SDS011;34170;54.364;18.582;2022-09-13T07:56:42;10.60;;;2.17;;
48363;SDS011;34170;54.364;18.582;2022-09-13T07:59:13;5.93;;;2.40;;
48363;SDS011;34170;54.364;18.582;2022-09-13T08:01:43;7.35;;;2.05;;
48363;SDS011;34170;54.364;18.582;2022-09-13T08:04:16;5.20;;;2.58;;
48363;SDS011;34170;54.364;18.582;2022-09-13T08:06:46;7.40;;;2.42;;
48363;SDS011;34170;54.364;18.582;2022-09-13T08:09:13;9.20;;;2.67;;
48363;SDS011;34170;54.364;18.582;2022-09-13T08:11:43;4.53;;;2.22;;
48363;SDS011;34170;54.364;18.582;2022-09-13T08:14:13;6.30;;;2.30;;
48363;SDS011;34170;54.364;18.582;2022-09-13T08:16:42;5.53;;;2.60;;
48363;SDS011;34170;54.364;18.582;2022-09-13T08:19:11;8.70;;;3.00;;
48363;SDS011;34170;54.364;18.582;2022-09-13T08:21:40;4.33;;;1.90;;
48363;SDS011;34170;54.364;18.582;2022-09-13T08:24:13;6.97;;;2.88;;
48363;SDS011;34170;54.364;18.582;2022-09-13T08:26:42;3.80;;;2.20;;
48363;SDS011;34170;54.364;18.582;2022-09-13T08:29:10;5.68;;;2.50;;
48363;SDS011;34170;54.364;18.582;2022-09-13T08:31:38;5.75;;;3.10;;
48363;SDS011;34170;54.364;18.582;2022-09-13T08:34:08;5.38;;;2.97;;
48363;SDS011;34170;54.364;18.582;2022-09-13T08:36:37;5.53;;;2.97;;
48363;SDS011;34170;54.364;18.582;2022-09-13T08:39:07;7.40;;;3.67;;
48363;SDS011;34170;54.364;18.582;2022-09-13T08:50:05;8.05;;;4.20;;
48363;SDS011;34170;54.364;18.582;2022-09-13T08:55:47;7.68;;;4.15;;
48363;SDS011;34170;54.364;18.582;2022-09-13T09:01:05;14.73;;;5.18;;
48363;SDS011;34170;54.364;18.582;2022-09-13T09:03:41;11.82;;;4.88;;
48363;SDS011;34170;54.364;18.582;2022-09-13T09:06:14;8.95;;;4.50;;
48363;SDS011;34170;54.364;18.582;2022-09-13T09:08:47;10.93;;;5.57;;
48363;SDS011;34170;54.364;18.582;2022-09-13T09:17:22;8.18;;;5.38;;
48363;SDS011;34170;54.364;18.582;2022-09-13T09:19:57;10.80;;;6.38;;
48363;SDS011;34170;54.364;18.582;2022-09-13T09:22:33;10.45;;;6.03;;
48363;SDS011;34170;54.364;18.582;2022-09-13T09:25:02;9.13;;;5.65;;
48363;SDS011;34170;54.364;18.582;2022-09-13T09:27:30;11.60;;;5.72;;
48363;SDS011;34170;54.364;18.582;2022-09-13T09:29:59;13.18;;;6.35;;
48363;SDS011;34170;54.364;18.582;2022-09-13T09:40:33;11.38;;;6.13;;
48363;SDS011;34170;54.364;18.582;2022-09-13T09:43:11;11.85;;;6.78;;
48363;SDS011;34170;54.364;18.582;2022-09-13T09:45:46;10.98;;;6.10;;
48363;SDS011;34170;54.364;18.582;2022-09-13T09:48:15;15.30;;;6.43;;
48363;SDS011;34170;54.364;18.582;2022-09-13T09:50:49;11.88;;;6.80;;
48363;SDS011;34170;54.364;18.582;2022-09-13T09:53:22;12.10;;;8.02;;
48363;SDS011;34170;54.364;18.582;2022-09-13T09:56:03;10.07;;;7.10;;
48363;SDS011;34170;54.364;18.582;2022-09-13T09:58:41;11.20;;;6.95;;
48363;SDS011;34170;54.364;18.582;2022-09-13T10:01:21;11.70;;;6.07;;
48363;SDS011;34170;54.364;18.582;2022-09-13T10:03:56;18.92;;;6.38;;
48363;SDS011;34170;54.364;18.582;2022-09-13T10:06:44;10.25;;;5.93;;
48363;SDS011;34170;54.364;18.582;2022-09-13T10:11:44;12.32;;;5.97;;
48363;SDS011;34170;54.364;18.582;2022-09-13T10:17:42;10.20;;;6.97;;
48363;SDS011;34170;54.364;18.582;2022-09-13T10:19:57;10.93;;;6.90;;
48363;SDS011;34170;54.364;18.582;2022-09-13T10:22:29;9.40;;;6.53;;
48363;SDS011;34170;54.364;18.582;2022-09-13T10:25:14;10.75;;;6.78;;
48363;SDS011;34170;54.364;18.582;2022-09-13T10:27:49;9.23;;;6.43;;
48363;SDS011;34170;54.364;18.582;2022-09-13T10:33:04;8.77;;;6.75;;
48363;SDS011;34170;54.364;18.582;2022-09-13T10:35:34;10.65;;;7.60;;
48363;SDS011;34170;54.364;18.582;2022-09-13T10:38:01;9.75;;;6.70;;
48363;SDS011;34170;54.364;18.582;2022-09-13T10:40:29;11.05;;;7.70;;
48363;SDS011;34170;54.364;18.582;2022-09-13T10:43:05;10.30;;;7.75;;
48363;SDS011;34170;54.364;18.582;2022-09-13T10:45:47;11.15;;;7.93;;
48363;SDS011;34170;54.364;18.582;2022-09-13T10:48:18;11.88;;;7.80;;
48363;SDS011;34170;54.364;18.582;2022-09-13T10:50:59;11.73;;;7.85;;
48363;SDS011;34170;54.364;18.582;2022-09-13T10:53:38;11.45;;;8.02;;
48363;SDS011;34170;54.364;18.582;2022-09-13T10:56:18;9.57;;;7.57;;
48363;SDS011;34170;54.364;18.582;2022-09-13T10:58:57;11.38;;;8.63;;
48363;SDS011;34170;54.364;18.582;2022-09-13T11:07:22;10.90;;;7.97;;
48363;SDS011;34170;54.364;18.582;2022-09-13T11:15:52;10.10;;;7.53;;
48363;SDS011;34170;54.364;18.582;2022-09-13T11:18:33;8.60;;;6.68;;
48363;SDS011;34170;54.364;18.582;2022-09-13T11:21:08;8.30;;;6.40;;
48363;SDS011;34170;54.364;18.582;2022-09-13T11:26:38;12.93;;;6.75;;
48363;SDS011;34170;54.364;18.582;2022-09-13T11:32:25;8.63;;;6.07;;
48363;SDS011;34170;54.364;18.582;2022-09-13T11:35:28;9.80;;;6.10;;
48363;SDS011;34170;54.364;18.582;2022-09-13T11:40:49;6.93;;;5.20;;
48363;SDS011;34170;54.364;18.582;2022-09-13T11:48:56;7.80;;;5.70;;
48363;SDS011;34170;54.364;18.582;2022-09-13T11:51:37;6.82;;;5.40;;
48363;SDS011;34170;54.364;18.582;2022-09-13T11:57:12;7.40;;;4.75;;
48363;SDS011;34170;54.364;18.582;2022-09-13T11:59:51;7.18;;;5.60;;
48363;SDS011;34170;54.364;18.582;2022-09-13T12:04:58;7.40;;;5.32;;
48363;SDS011;34170;54.364;18.582;2022-09-13T12:07:54;9.77;;;5.82;;
48363;SDS011;34170;54.364;18.582;2022-09-13T12:13:05;8.77;;;5.90;;
48363;SDS011;34170;54.364;18.582;2022-09-13T12:15:40;7.35;;;5.45;;
48363;SDS011;34170;54.364;18.582;2022-09-13T12:18:15;9.90;;;6.13;;
48363;SDS011;34170;54.364;18.582;2022-09-13T12:20:48;7.20;;;5.53;;
48363;SDS011;34170;54.364;18.582;2022-09-13T12:23:38;6.20;;;5.10;;
48363;SDS011;34170;54.364;18.582;2022-09-13T12:26:20;9.30;;;5.60;;
48363;SDS011;34170;54.364;18.582;2022-09-13T12:29:00;7.25;;;4.97;;
48363;SDS011;34170;54.364;18.582;2022-09-13T12:31:33;8.32;;;5.05;;
48363;SDS011;34170;54.364;18.582;2022-09-13T12:34:00;6.68;;;5.68;;
48363;SDS011;34170;54.364;18.582;2022-09-13T12:36:39;6.72;;;5.07;;
48363;SDS011;34170;54.364;18.582;2022-09-13T12:47:55;9.45;;;5.60;;
48363;SDS011;34170;54.364;18.582;2022-09-13T12:58:33;9.02;;;6.18;;
48363;SDS011;34170;54.364;18.582;2022-09-13T13:04:03;8.80;;;6.65;;
48363;SDS011;34170;54.364;18.582;2022-09-13T13:11:54;12.18;;;6.88;;
48363;SDS011;34170;54.364;18.582;2022-09-13T13:14:29;8.07;;;6.32;;
48363;SDS011;34170;54.364;18.582;2022-09-13T13:23:14;7.88;;;5.72;;
48363;SDS011;34170;54.364;18.582;2022-09-13T13:41:53;7.28;;;5.15;;
48363;SDS011;34170;54.364;18.582;2022-09-13T13:49:43;8.47;;;5.27;;
48363;SDS011;34170;54.364;18.582;2022-09-13T13:57:25;7.20;;;5.38;;
48363;SDS011;34170;54.364;18.582;2022-09-13T14:00:04;9.65;;;5.32;;
48363;SDS011;34170;54.364;18.582;2022-09-13T14:05:32;7.72;;;5.55;;
48363;SDS011;34170;54.364;18.582;2022-09-13T14:10:54;8.32;;;5.97;;
48363;SDS011;34170;54.364;18.582;2022-09-13T14:24:52;6.93;;;5.90;;
48363;SDS011;34170;54.364;18.582;2022-09-13T14:27:25;9.68;;;5.45;;
48363;SDS011;34170;54.364;18.582;2022-09-13T14:30:00;11.35;;;6.85;;
48363;SDS011;34170;54.364;18.582;2022-09-13T14:32:48;8.85;;;6.47;;
48363;SDS011;34170;54.364;18.582;2022-09-13T14:35:36;6.22;;;5.03;;
48363;SDS011;34170;54.364;18.582;2022-09-13T14:38:24;8.15;;;5.97;;
48363;SDS011;34170;54.364;18.582;2022-09-13T14:41:00;8.00;;;5.22;;
48363;SDS011;34170;54.364;18.582;2022-09-13T14:43:43;6.65;;;5.22;;
48363;SDS011;34170;54.364;18.582;2022-09-13T14:46:14;11.40;;;6.07;;
48363;SDS011;34170;54.364;18.582;2022-09-13T14:49:02;8.77;;;5.60;;
48363;SDS011;34170;54.364;18.582;2022-09-13T14:54:18;9.30;;;6.22;;
48363;SDS011;34170;54.364;18.582;2022-09-13T14:56:54;7.30;;;6.00;;
48363;SDS011;34170;54.364;18.582;2022-09-13T14:59:33;7.82;;;6.28;;
48363;SDS011;34170;54.364;18.582;2022-09-13T15:02:17;7.65;;;6.32;;
48363;SDS011;34170;54.364;18.582;2022-09-13T15:04:54;9.50;;;6.65;;
48363;SDS011;34170;54.364;18.582;2022-09-13T15:07:31;8.50;;;6.32;;
48363;SDS011;34170;54.364;18.582;2022-09-13T15:15:41;9.57;;;6.53;;
48363;SDS011;34170;54.364;18.582;2022-09-13T15:20:44;8.45;;;6.63;;
48363;SDS011;34170;54.364;18.582;2022-09-13T15:23:20;8.68;;;6.75;;
48363;SDS011;34170;54.364;18.582;2022-09-13T15:25:55;9.57;;;6.95;;
48363;SDS011;34170;54.364;18.582;2022-09-13T15:31:11;9.82;;;7.65;;
48363;SDS011;34170;54.364;18.582;2022-09-13T15:34:09;9.80;;;7.20;;
48363;SDS011;34170;54.364;18.582;2022-09-13T15:36:39;9.90;;;7.00;;
48363;SDS011;34170;54.364;18.582;2022-09-13T15:41:35;10.00;;;7.28;;
48363;SDS011;34170;54.364;18.582;2022-09-13T15:44:04;11.23;;;7.47;;
48363;SDS011;34170;54.364;18.582;2022-09-13T15:46:46;10.65;;;8.07;;
48363;SDS011;34170;54.364;18.582;2022-09-13T15:49:16;10.90;;;8.18;;
48363;SDS011;34170;54.364;18.582;2022-09-13T15:51:45;11.93;;;8.80;;
48363;SDS011;34170;54.364;18.582;2022-09-13T15:54:14;12.77;;;9.05;;
48363;SDS011;34170;54.364;18.582;2022-09-13T15:56:44;10.57;;;7.93;;
48363;SDS011;34170;54.364;18.582;2022-09-13T15:59:13;13.32;;;8.52;;
48363;SDS011;34170;54.364;18.582;2022-09-13T16:01:42;11.93;;;8.55;;
48363;SDS011;34170;54.364;18.582;2022-09-13T16:04:11;11.68;;;8.65;;
48363;SDS011;34170;54.364;18.582;2022-09-13T16:06:38;11.93;;;8.65;;
48363;SDS011;34170;54.364;18.582;2022-09-13T16:09:19;12.85;;;9.18;;
48363;SDS011;34170;54.364;18.582;2022-09-13T16:11:49;10.02;;;8.15;;
48363;SDS011;34170;54.364;18.582;2022-09-13T16:14:17;13.20;;;8.73;;
48363;SDS011;34170;54.364;18.582;2022-09-13T16:16:45;10.70;;;8.50;;
48363;SDS011;34170;54.364;18.582;2022-09-13T16:19:16;12.55;;;8.98;;
48363;SDS011;34170;54.364;18.582;2022-09-13T16:21:46;10.50;;;8.20;;
48363;SDS011;34170;54.364;18.582;2022-09-13T16:24:14;10.30;;;8.65;;
48363;SDS011;34170;54.364;18.582;2022-09-13T16:26:42;12.00;;;8.65;;
48363;SDS011;34170;54.364;18.582;2022-09-13T16:29:10;13.07;;;9.23;;
48363;SDS011;34170;54.364;18.582;2022-09-13T16:31:38;11.88;;;9.13;;
48363;SDS011;34170;54.364;18.582;2022-09-13T16:34:06;14.40;;;9.52;;
48363;SDS011;34170;54.364;18.582;2022-09-13T16:36:33;12.30;;;9.20;;
48363;SDS011;34170;54.364;18.582;2022-09-13T16:39:01;13.93;;;9.75;;
48363;SDS011;34170;54.364;18.582;2022-09-13T16:41:29;12.52;;;9.55;;
48363;SDS011;34170;54.364;18.582;2022-09-13T16:43:56;11.90;;;9.02;;
48363;SDS011;34170;54.364;18.582;2022-09-13T16:46:23;14.68;;;9.13;;
48363;SDS011;34170;54.364;18.582;2022-09-13T16:48:52;12.60;;;9.00;;
48363;SDS011;34170;54.364;18.582;2022-09-13T16:51:20;10.27;;;8.32;;
48363;SDS011;34170;54.364;18.582;2022-09-13T16:53:49;12.18;;;8.02;;
48363;SDS011;34170;54.364;18.582;2022-09-13T16:56:20;10.95;;;8.10;;
48363;SDS011;34170;54.364;18.582;2022-09-13T16:58:49;11.93;;;9.60;;
48363;SDS011;34170;54.364;18.582;2022-09-13T17:01:19;13.30;;;8.90;;
48363;SDS011;34170;54.364;18.582;2022-09-13T17:03:49;12.57;;;8.77;;
48363;SDS011;34170;54.364;18.582;2022-09-13T17:06:21;12.05;;;8.50;;
48363;SDS011;34170;54.364;18.582;2022-09-13T17:08:59;11.05;;;8.30;;
48363;SDS011;34170;54.364;18.582;2022-09-13T17:11:30;11.05;;;8.13;;
48363;SDS011;34170;54.364;18.582;2022-09-13T17:14:01;11.82;;;8.15;;
48363;SDS011;34170;54.364;18.582;2022-09-13T17:16:35;9.75;;;7.85;;
48363;SDS011;34170;54.364;18.582;2022-09-13T17:19:08;13.77;;;9.35;;
48363;SDS011;34170;54.364;18.582;2022-09-13T17:21:40;10.93;;;8.13;;
48363;SDS011;34170;54.364;18.582;2022-09-13T17:24:08;12.52;;;8.23;;
48363;SDS011;34170;54.364;18.582;2022-09-13T17:26:40;9.95;;;6.53;;
48363;SDS011;34170;54.364;18.582;2022-09-13T17:29:10;12.38;;;8.50;;
48363;SDS011;34170;54.364;18.582;2022-09-13T17:31:38;12.43;;;7.90;;
48363;SDS011;34170;54.364;18.582;2022-09-13T17:34:06;10.77;;;7.45;;
48363;SDS011;34170;54.364;18.582;2022-09-13T17:36:34;13.30;;;8.30;;
48363;SDS011;34170;54.364;18.582;2022-09-13T17:39:02;13.48;;;7.88;;
48363;SDS011;34170;54.364;18.582;2022-09-13T17:41:29;12.65;;;7.70;;
48363;SDS011;34170;54.364;18.582;2022-09-13T17:43:57;11.70;;;7.70;;
48363;SDS011;34170;54.364;18.582;2022-09-13T17:46:25;11.32;;;7.90;;
48363;SDS011;34170;54.364;18.582;2022-09-13T17:48:56;10.90;;;7.63;;
48363;SDS011;34170;54.364;18.582;2022-09-13T17:51:27;13.32;;;8.00;;
48363;SDS011;34170;54.364;18.582;2022-09-13T17:54:01;14.10;;;9.30;;
48363;SDS011;34170;54.364;18.582;2022-09-13T17:56:32;12.13;;;8.15;;
48363;SDS011;34170;54.364;18.582;2022-09-13T17:59:08;12.88;;;8.05;;
48363;SDS011;34170;54.364;18.582;2022-09-13T18:01:41;12.65;;;8.60;;
48363;SDS011;34170;54.364;18.582;2022-09-13T18:04:10;13.23;;;9.00;;
48363;SDS011;34170;54.364;18.582;2022-09-13T18:06:39;15.30;;;9.88;;
48363;SDS011;34170;54.364;18.582;2022-09-13T18:09:09;13.23;;;9.07;;
48363;SDS011;34170;54.364;18.582;2022-09-13T18:11:37;13.60;;;9.90;;
48363;SDS011;34170;54.364;18.582;2022-09-13T18:14:09;15.23;;;9.77;;
48363;SDS011;34170;54.364;18.582;2022-09-13T18:16:42;13.15;;;9.55;;
48363;SDS011;34170;54.364;18.582;2022-09-13T18:19:10;16.27;;;10.65;;
48363;SDS011;34170;54.364;18.582;2022-09-13T18:21:38;15.38;;;10.32;;
48363;SDS011;34170;54.364;18.582;2022-09-13T18:24:05;17.60;;;9.65;;
48363;SDS011;34170;54.364;18.582;2022-09-13T18:26:33;14.73;;;9.32;;
48363;SDS011;34170;54.364;18.582;2022-09-13T18:29:02;13.63;;;9.32;;
48363;SDS011;34170;54.364;18.582;2022-09-13T18:31:33;15.45;;;9.77;;
48363;SDS011;34170;54.364;18.582;2022-09-13T18:34:03;16.10;;;9.27;;
48363;SDS011;34170;54.364;18.582;2022-09-13T18:36:32;11.90;;;9.20;;
48363;SDS011;34170;54.364;18.582;2022-09-13T18:39:02;15.10;;;9.00;;
48363;SDS011;34170;54.364;18.582;2022-09-13T18:41:32;14.52;;;9.45;;
48363;SDS011;34170;54.364;18.582;2022-09-13T18:44:02;16.63;;;11.48;;
48363;SDS011;34170;54.364;18.582;2022-09-13T18:46:31;16.65;;;10.95;;